Time;durP1;ratioP1;P1;durP2;ratioP2;P2;SDS_P1;SDS_P2;PMS_P1;PMS_P2;Temp;Humidity;BMP_temperature;BMP_pressure;BME280_temperature;BME280_humidity;BME280_pressure;Samples;Min_cycle;Max_cycle;Signal;HPM_P1;HPM_P2
2022/10/29 00:00:48;;;;;;;;;;;16.00;99.90;;;;;;4948285;28;20716;-76
2022/10/29 00:03:14;;;;;;;;;;;16.00;99.90;;;;;;4948751;28;19917;-76
2022/10/29 00:05:39;;;;;;;;;;;16.00;99.90;;;;;;4950550;28;20286;-76
2022/10/29 00:08:05;;;;;;;;;;;16.10;99.90;;;;;;4947549;28;19929;-75
2022/10/29 00:10:30;;;;;;;;;;;15.90;99.90;;;;;;4949461;28;19960;-76
2022/10/29 00:12:58;;;;;;;;;;;15.90;99.90;;;;;;4945456;28;19917;-77
2022/10/29 00:15:24;;;;;;;;;;;15.90;99.90;;;;;;4947433;29;20420;-76
2022/10/29 00:17:49;;;;;;;;;;;15.80;99.90;;;;;;4949433;29;19921;-76
2022/10/29 00:20:14;;;;;;;;;;;15.90;99.90;;;;;;4946046;28;19910;-76
2022/10/29 00:22:43;;;;;;;;;;;15.80;99.90;;;;;;4948499;28;19915;-76
2022/10/29 00:25:08;;;;;;;;;;;15.80;99.90;;;;;;4946923;28;19957;-75
2022/10/29 00:27:33;;;;;;;;;;;15.80;99.90;;;;;;4945664;28;20568;-76
2022/10/29 00:29:59;;;;;;;;;;;15.70;99.90;;;;;;4941948;28;19933;-76
2022/10/29 00:32:24;;;;;;;;;;;15.70;99.90;;;;;;4948612;29;19945;-76
2022/10/29 00:34:50;;;;;;;;;;;15.70;99.90;;;;;;4949036;29;20369;-76
2022/10/29 00:37:15;;;;;;;;;;;15.60;99.90;;;;;;4948254;28;19914;-76
2022/10/29 00:39:40;;;;;;;;;;;15.70;99.90;;;;;;4947042;28;19914;-76
2022/10/29 00:42:12;;;;;;;;;;;15.80;99.90;;;;;;4948731;28;20699;-76
2022/10/29 00:44:39;;;;;;;;;;;15.80;99.90;;;;;;4946640;28;19914;-76
2022/10/29 00:47:24;;;;;;;;;;;15.80;99.90;;;;;;4949289;28;19925;-76
2022/10/29 00:49:52;;;;;;;;;;;15.80;99.90;;;;;;4946853;29;20368;-76
2022/10/29 00:52:19;;;;;;;;;;;15.70;99.90;;;;;;4943582;28;20289;-76
2022/10/29 00:54:46;;;;;;;;;;;15.80;99.90;;;;;;4951401;28;20413;-77
2022/10/29 00:57:16;;;;;;;;;;;15.80;99.90;;;;;;4951614;28;20361;-76
2022/10/29 00:59:41;;;;;;;;;;;15.80;99.90;;;;;;4950580;28;19958;-76
2022/10/29 01:02:07;;;;;;;;;;;15.80;99.90;;;;;;4949421;28;19978;-76
2022/10/29 01:04:33;;;;;;;;;;;15.80;99.90;;;;;;4951154;28;19949;-76
2022/10/29 01:06:58;;;;;;;;;;;15.70;99.90;;;;;;4948262;28;20333;-76
2022/10/29 01:09:24;;;;;;;;;;;15.80;99.90;;;;;;4949259;29;19910;-75
2022/10/29 01:12:03;;;;;;;;;;;15.70;99.90;;;;;;4944235;28;19964;-76
2022/10/29 01:14:41;;;;;;;;;;;15.60;99.90;;;;;;4944533;28;19960;-76
2022/10/29 01:17:12;;;;;;;;;;;15.60;99.90;;;;;;4950868;28;19915;-76
2022/10/29 01:19:47;;;;;;;;;;;15.60;99.90;;;;;;4942840;29;19932;-76
2022/10/29 01:22:19;;;;;;;;;;;15.40;99.90;;;;;;4949655;29;19914;-76
2022/10/29 01:24:50;;;;;;;;;;;15.20;99.90;;;;;;4946685;28;19957;-76
2022/10/29 01:27:28;;;;;;;;;;;15.30;99.90;;;;;;4946758;29;20017;-76
2022/10/29 01:30:00;;;;;;;;;;;15.20;99.90;;;;;;4944844;28;19914;-76
2022/10/29 01:32:31;;;;;;;;;;;15.20;99.90;;;;;;4947997;29;20009;-77
2022/10/29 01:35:03;;;;;;;;;;;15.10;99.90;;;;;;4946827;28;20017;-76
2022/10/29 01:37:31;;;;;;;;;;;15.00;99.90;;;;;;4950653;28;20646;-76
2022/10/29 01:40:02;;;;;;;;;;;14.90;99.90;;;;;;4949327;28;19906;-76
2022/10/29 01:42:39;;;;;;;;;;;14.90;99.90;;;;;;4950260;28;19953;-75
2022/10/29 01:45:04;;;;;;;;;;;14.70;99.90;;;;;;4944707;28;19914;-76
2022/10/29 01:47:34;;;;;;;;;;;14.50;99.90;;;;;;4944101;28;20353;-76
2022/10/29 01:50:03;;;;;;;;;;;14.40;99.90;;;;;;4949124;28;19914;-76
2022/10/29 01:52:31;;;;;;;;;;;14.40;99.90;;;;;;4947033;28;19969;-76
2022/10/29 01:54:56;;;;;;;;;;;14.30;99.90;;;;;;4947545;28;20553;-76
2022/10/29 01:57:48;;;;;;;;;;;14.40;99.90;;;;;;4944969;28;20002;-76
2022/10/29 02:00:15;;;;;;;;;;;14.50;99.90;;;;;;4947749;28;19913;-76
2022/10/29 02:02:49;;;;;;;;;;;14.50;99.90;;;;;;4949219;28;19996;-76
2022/10/29 02:05:21;;;;;;;;;;;14.30;99.90;;;;;;4950460;29;20351;-74
2022/10/29 02:07:53;;;;;;;;;;;14.20;99.90;;;;;;4948160;28;19933;-77
2022/10/29 02:10:26;;;;;;;;;;;14.10;99.90;;;;;;4948499;28;19910;-77
2022/10/29 02:12:52;;;;;;;;;;;14.00;99.90;;;;;;4951024;28;20031;-77
2022/10/29 02:15:20;;;;;;;;;;;13.90;99.90;;;;;;4949705;28;20321;-77
2022/10/29 02:17:45;;;;;;;;;;;14.00;99.90;;;;;;4950564;28;19973;-77
2022/10/29 02:20:12;;;;;;;;;;;13.90;99.90;;;;;;4943908;29;20285;-77
2022/10/29 02:22:37;;;;;;;;;;;13.80;99.90;;;;;;4948498;28;19906;-77
2022/10/29 02:25:04;;;;;;;;;;;13.80;99.90;;;;;;4949375;28;19910;-76
2022/10/29 02:27:29;;;;;;;;;;;13.70;99.90;;;;;;4949550;28;19906;-77
2022/10/29 02:29:54;;;;;;;;;;;13.60;99.90;;;;;;4948732;29;19963;-77
2022/10/29 02:32:20;;;;;;;;;;;13.50;99.90;;;;;;4950379;29;20349;-77
2022/10/29 02:34:45;;;;;;;;;;;13.40;99.90;;;;;;4948675;29;19919;-76
2022/10/29 02:37:11;;;;;;;;;;;13.40;99.90;;;;;;4950838;28;19922;-77
2022/10/29 02:39:36;;;;;;;;;;;13.30;99.90;;;;;;4948863;28;19917;-77
2022/10/29 02:42:02;;;;;;;;;;;13.30;99.90;;;;;;4950096;29;20000;-77
2022/10/29 02:44:27;;;;;;;;;;;13.40;99.90;;;;;;4948931;28;20022;-77
2022/10/29 02:46:52;;;;;;;;;;;13.50;99.90;;;;;;4949998;29;20354;-76
2022/10/29 02:49:18;;;;;;;;;;;13.60;99.90;;;;;;4948872;28;19921;-75
2022/10/29 02:51:43;;;;;;;;;;;13.60;99.90;;;;;;4948640;28;19960;-75
2022/10/29 02:54:09;;;;;;;;;;;13.70;99.90;;;;;;4948330;29;19973;-74
2022/10/29 02:56:34;;;;;;;;;;;13.70;99.90;;;;;;4949137;28;19921;-77
2022/10/29 02:59:02;;;;;;;;;;;13.80;99.90;;;;;;4945166;28;19910;-77
2022/10/29 03:01:28;;;;;;;;;;;13.70;99.90;;;;;;4945319;28;20354;-76
2022/10/29 03:03:53;;;;;;;;;;;13.60;99.90;;;;;;4947843;29;19921;-77
2022/10/29 03:06:19;;;;;;;;;;;13.50;99.90;;;;;;4946323;28;19921;-77
2022/10/29 03:08:45;;;;;;;;;;;13.50;99.90;;;;;;4947467;29;19964;-77
2022/10/29 03:11:10;;;;;;;;;;;13.50;99.90;;;;;;4953085;28;19961;-77
2022/10/29 03:13:36;;;;;;;;;;;13.50;99.90;;;;;;4953474;28;19907;-77
2022/10/29 03:16:01;;;;;;;;;;;13.40;99.90;;;;;;4944692;28;20009;-77
2022/10/29 03:18:27;;;;;;;;;;;13.30;99.90;;;;;;4952832;28;20009;-77
2022/10/29 03:20:52;;;;;;;;;;;13.30;99.90;;;;;;4952607;29;19914;-77
2022/10/29 03:23:18;;;;;;;;;;;13.30;99.90;;;;;;4951645;29;19922;-77
2022/10/29 03:25:43;;;;;;;;;;;13.50;99.90;;;;;;4951344;29;19929;-77
2022/10/29 03:28:08;;;;;;;;;;;13.60;99.90;;;;;;4953187;28;19997;-77
2022/10/29 03:30:34;;;;;;;;;;;13.70;99.90;;;;;;4950930;28;19922;-77
2022/10/29 03:32:59;;;;;;;;;;;13.50;99.90;;;;;;4949150;28;19910;-77
2022/10/29 03:35:25;;;;;;;;;;;13.50;99.90;;;;;;4951298;29;19965;-77
2022/10/29 03:37:51;;;;;;;;;;;13.50;99.90;;;;;;4952677;28;19915;-77
2022/10/29 03:40:16;;;;;;;;;;;13.60;99.90;;;;;;4953066;28;19933;-76
2022/10/29 03:42:42;;;;;;;;;;;13.80;99.90;;;;;;4952733;28;20263;-76
2022/10/29 03:45:07;;;;;;;;;;;13.80;99.90;;;;;;4950197;29;19910;-77
2022/10/29 03:47:33;;;;;;;;;;;13.80;99.90;;;;;;4950823;28;19921;-77
2022/10/29 03:49:58;;;;;;;;;;;14.00;99.90;;;;;;4952191;29;20008;-76
2022/10/29 03:52:24;;;;;;;;;;;14.10;99.90;;;;;;4948075;28;19986;-76
2022/10/29 03:54:49;;;;;;;;;;;14.20;99.90;;;;;;4951318;28;19910;-76
2022/10/29 03:57:14;;;;;;;;;;;14.20;99.90;;;;;;4950956;28;19993;-76
2022/10/29 03:59:40;;;;;;;;;;;14.30;99.90;;;;;;4951929;29;19955;-76
2022/10/29 04:02:06;;;;;;;;;;;14.30;99.90;;;;;;4949698;29;19929;-76
2022/10/29 04:04:31;;;;;;;;;;;14.30;99.90;;;;;;4952424;28;19933;-76
2022/10/29 04:06:56;;;;;;;;;;;14.20;99.90;;;;;;4947691;28;19969;-76
2022/10/29 04:09:22;;;;;;;;;;;14.10;99.90;;;;;;4945980;29;20271;-76
2022/10/29 04:11:47;;;;;;;;;;;14.10;99.90;;;;;;4952217;29;19914;-76
2022/10/29 04:14:13;;;;;;;;;;;14.10;99.90;;;;;;4951113;29;19911;-76
2022/10/29 04:16:38;;;;;;;;;;;14.10;99.90;;;;;;4949760;29;20029;-76
2022/10/29 04:19:03;;;;;;;;;;;14.10;99.90;;;;;;4950676;28;19916;-76
2022/10/29 04:21:29;;;;;;;;;;;14.00;99.90;;;;;;4952218;29;19914;-76
2022/10/29 04:23:54;;;;;;;;;;;13.80;99.90;;;;;;4949403;28;19910;-76
2022/10/29 04:26:20;;;;;;;;;;;13.70;99.90;;;;;;4944486;28;19998;-76
2022/10/29 04:28:49;;;;;;;;;;;13.70;99.90;;;;;;4949013;29;19914;-76
2022/10/29 04:31:14;;;;;;;;;;;13.70;99.90;;;;;;4950774;28;19993;-76
2022/10/29 04:33:39;;;;;;;;;;;13.60;99.90;;;;;;4950933;29;19993;-76
2022/10/29 04:36:05;;;;;;;;;;;13.50;99.90;;;;;;4950078;29;19910;-76
2022/10/29 04:38:31;;;;;;;;;;;13.50;99.90;;;;;;4950896;28;19922;-75
2022/10/29 04:40:57;;;;;;;;;;;13.40;99.90;;;;;;4952713;28;19906;-76
2022/10/29 04:43:22;;;;;;;;;;;13.30;99.90;;;;;;4951832;28;20351;-76
2022/10/29 04:45:51;;;;;;;;;;;13.20;99.90;;;;;;4949113;29;19954;-76
2022/10/29 04:48:17;;;;;;;;;;;13.10;99.90;;;;;;4952083;28;19917;-75
2022/10/29 04:50:42;;;;;;;;;;;13.00;99.90;;;;;;4948059;28;19907;-76
2022/10/29 04:53:08;;;;;;;;;;;13.00;99.90;;;;;;4952649;29;19914;-77
2022/10/29 04:55:37;;;;;;;;;;;12.90;99.90;;;;;;4947545;29;19922;-76
2022/10/29 04:58:03;;;;;;;;;;;13.00;99.90;;;;;;4949168;29;20373;-76
2022/10/29 05:00:28;;;;;;;;;;;13.00;99.90;;;;;;4947353;29;19910;-77
2022/10/29 05:02:54;;;;;;;;;;;13.00;99.90;;;;;;4950734;29;19910;-77
2022/10/29 05:05:20;;;;;;;;;;;12.90;99.90;;;;;;4950911;29;19977;-77
2022/10/29 05:07:45;;;;;;;;;;;12.90;99.90;;;;;;4949442;28;20337;-76
2022/10/29 05:10:10;;;;;;;;;;;12.70;99.90;;;;;;4950424;29;19910;-77
2022/10/29 05:12:36;;;;;;;;;;;12.70;99.90;;;;;;4951960;29;19910;-76
2022/10/29 05:15:02;;;;;;;;;;;12.60;99.90;;;;;;4949535;28;20384;-77
2022/10/29 05:17:27;;;;;;;;;;;12.50;99.90;;;;;;4951540;28;19918;-76
2022/10/29 05:19:53;;;;;;;;;;;12.50;99.90;;;;;;4949852;28;19910;-77
2022/10/29 05:22:18;;;;;;;;;;;12.60;99.90;;;;;;4951228;29;19966;-76
2022/10/29 05:24:43;;;;;;;;;;;12.50;99.90;;;;;;4949548;29;20005;-77
2022/10/29 05:27:09;;;;;;;;;;;12.50;99.90;;;;;;4947966;29;19910;-77
2022/10/29 05:29:34;;;;;;;;;;;12.70;99.90;;;;;;4948716;28;20334;-76
2022/10/29 05:32:00;;;;;;;;;;;12.70;99.90;;;;;;4949478;29;20001;-76
2022/10/29 05:34:25;;;;;;;;;;;12.70;99.90;;;;;;4948593;29;20479;-77
2022/10/29 05:36:50;;;;;;;;;;;12.70;99.90;;;;;;4949828;28;19914;-77
2022/10/29 05:39:16;;;;;;;;;;;12.90;99.90;;;;;;4951001;29;19910;-77
2022/10/29 05:41:41;;;;;;;;;;;13.10;99.90;;;;;;4946259;28;19910;-77
2022/10/29 05:44:07;;;;;;;;;;;13.30;99.90;;;;;;4946069;29;19910;-77
2022/10/29 05:46:32;;;;;;;;;;;13.30;99.90;;;;;;4950369;28;19997;-77
2022/10/29 05:48:57;;;;;;;;;;;13.50;99.90;;;;;;4950421;28;19914;-77
2022/10/29 05:51:23;;;;;;;;;;;13.60;99.90;;;;;;4950253;29;19914;-77
2022/10/29 05:53:48;;;;;;;;;;;13.60;99.90;;;;;;4948962;29;19921;-77
2022/10/29 05:56:14;;;;;;;;;;;13.60;99.90;;;;;;4949984;29;20060;-77
2022/10/29 05:58:39;;;;;;;;;;;13.50;99.90;;;;;;4946195;28;20333;-76
2022/10/29 06:01:06;;;;;;;;;;;13.40;99.90;;;;;;4947467;29;20050;-76
2022/10/29 06:03:31;;;;;;;;;;;13.30;99.90;;;;;;4946414;28;19918;-77
2022/10/29 06:05:57;;;;;;;;;;;13.30;99.90;;;;;;4942051;29;20289;-76
2022/10/29 06:08:22;;;;;;;;;;;13.20;99.90;;;;;;4943568;28;19954;-76
2022/10/29 06:10:53;;;;;;;;;;;13.20;99.90;;;;;;4949093;29;19972;-77
2022/10/29 06:13:20;;;;;;;;;;;13.00;99.90;;;;;;4949715;28;20233;-76
2022/10/29 06:15:46;;;;;;;;;;;12.80;99.90;;;;;;4948043;29;19910;-76
2022/10/29 06:18:12;;;;;;;;;;;12.70;99.90;;;;;;4948422;29;19926;-76
2022/10/29 06:20:37;;;;;;;;;;;12.60;99.90;;;;;;4947992;29;19910;-77
2022/10/29 06:23:03;;;;;;;;;;;12.50;99.90;;;;;;4946541;28;20383;-76
2022/10/29 06:25:28;;;;;;;;;;;12.50;99.90;;;;;;4947503;29;20000;-76
2022/10/29 06:27:58;;;;;;;;;;;12.50;99.90;;;;;;4948534;29;20021;-76
2022/10/29 06:30:24;;;;;;;;;;;12.50;99.90;;;;;;4947192;29;19974;-77
2022/10/29 06:32:49;;;;;;;;;;;12.50;99.90;;;;;;4948919;28;20378;-77
2022/10/29 06:35:14;;;;;;;;;;;12.50;99.90;;;;;;4948983;29;19973;-77
2022/10/29 06:37:40;;;;;;;;;;;12.60;99.90;;;;;;4942175;29;20009;-77
2022/10/29 06:40:07;;;;;;;;;;;12.60;99.90;;;;;;4945613;29;19922;-77
2022/10/29 06:42:32;;;;;;;;;;;12.70;99.90;;;;;;4953314;28;19910;-76
2022/10/29 06:44:57;;;;;;;;;;;12.80;99.90;;;;;;4953394;28;19974;-76
2022/10/29 06:47:23;;;;;;;;;;;12.80;99.90;;;;;;4955167;28;20365;-76
2022/10/29 06:49:48;;;;;;;;;;;12.70;99.90;;;;;;4955527;29;19915;-76
2022/10/29 06:52:14;;;;;;;;;;;12.80;99.90;;;;;;4950709;28;19915;-77
2022/10/29 06:54:39;;;;;;;;;;;13.10;99.90;;;;;;4954266;29;19914;-77
2022/10/29 06:57:04;;;;;;;;;;;13.20;99.90;;;;;;4952174;29;19984;-77
2022/10/29 06:59:30;;;;;;;;;;;13.40;99.90;;;;;;4956372;29;20420;-77
2022/10/29 07:01:55;;;;;;;;;;;13.50;99.90;;;;;;4952666;28;20022;-77
2022/10/29 07:04:21;;;;;;;;;;;13.70;99.90;;;;;;4955812;28;19918;-76
2022/10/29 07:06:46;;;;;;;;;;;13.80;99.90;;;;;;4953879;28;20012;-76
2022/10/29 07:09:11;;;;;;;;;;;13.90;99.90;;;;;;4954866;29;19997;-76
2022/10/29 07:11:40;;;;;;;;;;;14.00;99.90;;;;;;4950651;28;19995;-77
2022/10/29 07:14:07;;;;;;;;;;;14.10;99.90;;;;;;4950326;28;20317;-77
2022/10/29 07:16:33;;;;;;;;;;;14.10;99.90;;;;;;4952338;28;19954;-77
2022/10/29 07:18:58;;;;;;;;;;;14.20;99.90;;;;;;4949804;28;19957;-77
2022/10/29 07:21:24;;;;;;;;;;;14.30;99.90;;;;;;4951053;28;19965;-77
2022/10/29 07:23:49;;;;;;;;;;;14.30;99.90;;;;;;4952044;28;19966;-76
2022/10/29 07:26:15;;;;;;;;;;;14.40;99.90;;;;;;4952238;28;19956;-77
2022/10/29 07:28:40;;;;;;;;;;;14.50;99.90;;;;;;4952028;29;19910;-77
2022/10/29 07:31:06;;;;;;;;;;;14.60;99.90;;;;;;4952265;28;19926;-78
2022/10/29 07:33:32;;;;;;;;;;;14.70;99.90;;;;;;4951266;28;19918;-80
2022/10/29 07:35:58;;;;;;;;;;;14.70;99.90;;;;;;4953658;28;20305;-79
2022/10/29 07:38:23;;;;;;;;;;;14.80;99.90;;;;;;4953604;28;19914;-78
2022/10/29 07:40:49;;;;;;;;;;;14.90;99.90;;;;;;4953772;28;19937;-77
2022/10/29 07:43:15;;;;;;;;;;;15.00;99.90;;;;;;4953825;28;19958;-78
2022/10/29 07:45:41;;;;;;;;;;;15.10;99.90;;;;;;4954335;29;20023;-78
2022/10/29 07:48:07;;;;;;;;;;;15.20;99.90;;;;;;4953043;28;20297;-77
2022/10/29 07:50:33;;;;;;;;;;;15.30;99.90;;;;;;4955861;28;20441;-77
2022/10/29 07:52:59;;;;;;;;;;;15.40;99.90;;;;;;4951877;28;20012;-78
2022/10/29 07:55:25;;;;;;;;;;;15.40;99.90;;;;;;4944301;28;19973;-77
2022/10/29 07:57:57;;;;;;;;;;;15.50;99.90;;;;;;4951415;28;20384;-78
2022/10/29 08:00:30;;;;;;;;;;;15.50;99.90;;;;;;4951255;28;19910;-76
2022/10/29 08:02:55;;;;;;;;;;;15.60;99.90;;;;;;4949626;29;19922;-80
2022/10/29 08:05:21;;;;;;;;;;;15.70;99.90;;;;;;4950114;29;19957;-77
2022/10/29 08:07:47;;;;;;;;;;;15.80;99.90;;;;;;4950390;28;19950;-78
2022/10/29 08:10:12;;;;;;;;;;;16.00;99.90;;;;;;4950667;29;19950;-76
2022/10/29 08:12:38;;;;;;;;;;;16.00;99.90;;;;;;4946259;28;20182;-76
2022/10/29 08:15:04;;;;;;;;;;;16.10;99.90;;;;;;4952056;29;19914;-79
2022/10/29 08:17:30;;;;;;;;;;;16.10;99.90;;;;;;4949662;28;19921;-78
2022/10/29 08:19:56;;;;;;;;;;;16.10;99.90;;;;;;4944412;28;19910;-79
2022/10/29 08:22:21;;;;;;;;;;;16.30;99.90;;;;;;4950653;29;19910;-78
2022/10/29 08:24:47;;;;;;;;;;;16.40;99.90;;;;;;4947013;28;19910;-78
2022/10/29 08:27:12;;;;;;;;;;;16.50;99.90;;;;;;4945779;29;20121;-80
2022/10/29 08:29:37;;;;;;;;;;;16.60;99.90;;;;;;4939437;28;19933;-82
2022/10/29 08:32:03;;;;;;;;;;;16.60;99.90;;;;;;4949715;29;19919;-76
2022/10/29 08:34:28;;;;;;;;;;;16.80;99.90;;;;;;4939869;28;19918;-78
2022/10/29 08:36:54;;;;;;;;;;;16.90;99.90;;;;;;4949607;28;19914;-78
2022/10/29 08:39:19;;;;;;;;;;;17.00;99.90;;;;;;4952930;28;19906;-80
2022/10/29 08:41:53;;;;;;;;;;;16.90;99.90;;;;;;4949546;28;19934;-80
2022/10/29 08:44:39;;;;;;;;;;;17.00;99.90;;;;;;4946404;29;19910;-77
2022/10/29 08:47:11;;;;;;;;;;;17.10;99.90;;;;;;4948535;28;19910;-77
2022/10/29 08:49:43;;;;;;;;;;;17.20;99.90;;;;;;4949441;29;19973;-76
2022/10/29 08:52:08;;;;;;;;;;;17.30;99.90;;;;;;4943664;28;20537;-79
2022/10/29 08:54:35;;;;;;;;;;;17.30;99.90;;;;;;4948185;29;20005;-77
2022/10/29 08:57:12;;;;;;;;;;;17.30;99.90;;;;;;4948282;28;19962;-77
2022/10/29 08:59:41;;;;;;;;;;;17.40;99.90;;;;;;4942533;29;19911;-78
2022/10/29 09:02:13;;;;;;;;;;;17.40;99.90;;;;;;4950147;28;19910;-78
2022/10/29 09:04:38;;;;;;;;;;;17.40;99.90;;;;;;4946972;28;20405;-79
2022/10/29 09:07:21;;;;;;;;;;;17.50;99.90;;;;;;4949434;29;19910;-80
2022/10/29 09:09:49;;;;;;;;;;;17.70;99.90;;;;;;4946476;29;20396;-76
2022/10/29 09:12:33;;;;;;;;;;;18.00;99.90;;;;;;4947987;29;19926;-79
2022/10/29 09:15:01;;;;;;;;;;;18.00;99.90;;;;;;4951839;28;20325;-80
2022/10/29 09:17:35;;;;;;;;;;;18.00;99.90;;;;;;4950889;29;19968;-79
2022/10/29 09:20:13;;;;;;;;;;;17.90;99.90;;;;;;4947847;29;19926;-76
2022/10/29 09:22:47;;;;;;;;;;;18.10;99.90;;;;;;4945728;29;19938;-77
2022/10/29 09:25:16;;;;;;;;;;;18.40;99.90;;;;;;4948137;29;20014;-77
2022/10/29 09:27:59;;;;;;;;;;;18.50;99.90;;;;;;4949792;28;19946;-76
2022/10/29 09:30:28;;;;;;;;;;;18.70;99.90;;;;;;4945943;28;19995;-81
2022/10/29 09:33:06;;;;;;;;;;;18.60;99.90;;;;;;4947265;28;19910;-77
2022/10/29 09:35:37;;;;;;;;;;;18.50;99.90;;;;;;4944088;28;19911;-74
2022/10/29 09:38:18;;;;;;;;;;;18.50;99.90;;;;;;4947626;29;19915;-74
2022/10/29 09:40:44;;;;;;;;;;;18.50;99.90;;;;;;4949671;29;19914;-75
2022/10/29 09:43:26;;;;;;;;;;;18.30;99.90;;;;;;4946167;28;19915;-82
2022/10/29 09:45:59;;;;;;;;;;;18.30;99.90;;;;;;4945357;28;19911;-76
2022/10/29 09:48:33;;;;;;;;;;;18.30;99.90;;;;;;4944393;28;21531;-81
2022/10/29 09:51:02;;;;;;;;;;;18.40;99.90;;;;;;4948248;29;20029;-76
2022/10/29 09:53:28;;;;;;;;;;;18.70;99.90;;;;;;4941514;29;20388;-77
2022/10/29 09:55:53;;;;;;;;;;;19.10;99.90;;;;;;4935145;29;19928;-82
2022/10/29 09:58:21;;;;;;;;;;;19.50;99.90;;;;;;4946667;28;20313;-83
2022/10/29 10:00:47;;;;;;;;;;;19.60;99.90;;;;;;4940966;28;20365;-76
2022/10/29 10:03:15;;;;;;;;;;;19.60;99.90;;;;;;4944758;29;19925;-77
2022/10/29 10:06:01;;;;;;;;;;;19.30;99.90;;;;;;4946555;28;20538;-76
2022/10/29 10:08:26;;;;;;;;;;;19.20;99.90;;;;;;4934823;29;19969;-77
2022/10/29 10:10:53;;;;;;;;;;;19.10;99.90;;;;;;4947684;29;20416;-77
2022/10/29 10:13:23;;;;;;;;;;;19.20;99.90;;;;;;4947942;28;19999;-76
2022/10/29 10:15:50;;;;;;;;;;;19.10;99.90;;;;;;4949814;28;19932;-76
2022/10/29 10:18:23;;;;;;;;;;;19.10;99.90;;;;;;4944610;28;19914;-76
2022/10/29 10:21:01;;;;;;;;;;;19.20;99.90;;;;;;4944416;28;20529;-77
2022/10/29 10:23:28;;;;;;;;;;;19.40;99.90;;;;;;4945763;29;20420;-77
2022/10/29 10:25:54;;;;;;;;;;;19.50;99.90;;;;;;4947787;28;20350;-74
2022/10/29 10:28:21;;;;;;;;;;;19.30;99.90;;;;;;4944968;28;19926;-75
2022/10/29 10:31:05;;;;;;;;;;;19.40;99.90;;;;;;4948551;28;19953;-76
2022/10/29 10:33:32;;;;;;;;;;;19.90;99.90;;;;;;4942310;28;19922;-76
2022/10/29 10:36:03;;;;;;;;;;;20.30;99.90;;;;;;4944464;29;19957;-76
2022/10/29 10:38:36;;;;;;;;;;;20.30;99.90;;;;;;4940227;28;20583;-77
2022/10/29 10:41:04;;;;;;;;;;;20.50;99.90;;;;;;4943990;28;19917;-77
2022/10/29 10:43:29;;;;;;;;;;;20.40;99.90;;;;;;4944202;28;20001;-76
2022/10/29 10:45:59;;;;;;;;;;;20.70;99.90;;;;;;4949660;29;20001;-76
2022/10/29 10:48:26;;;;;;;;;;;21.60;99.90;;;;;;4943550;29;20362;-77
2022/10/29 10:51:07;;;;;;;;;;;23.50;98.10;;;;;;4946807;28;20317;-77
2022/10/29 10:53:33;;;;;;;;;;;23.80;96.30;;;;;;4945462;28;19911;-76
2022/10/29 10:55:58;;;;;;;;;;;24.90;92.80;;;;;;4943806;28;20333;-77
2022/10/29 10:58:34;;;;;;;;;;;24.80;91.10;;;;;;4936306;28;19918;-76
2022/10/29 11:00:59;;;;;;;;;;;25.20;88.20;;;;;;4946797;28;19942;-76
2022/10/29 11:03:37;;;;;;;;;;;25.80;83.90;;;;;;4950562;28;19911;-77
2022/10/29 11:06:06;;;;;;;;;;;25.10;84.40;;;;;;4945247;29;19989;-77
2022/10/29 11:08:47;;;;;;;;;;;24.90;86.80;;;;;;4947721;28;19917;-76
2022/10/29 11:11:27;;;;;;;;;;;25.50;85.20;;;;;;4945555;28;19914;-77
2022/10/29 11:13:53;;;;;;;;;;;27.20;77.70;;;;;;4943930;29;20001;-77
2022/10/29 11:16:21;;;;;;;;;;;26.50;76.70;;;;;;4948947;28;19928;-76
2022/10/29 11:19:05;;;;;;;;;;;25.60;79.10;;;;;;4948471;28;19937;-77
2022/10/29 11:21:36;;;;;;;;;;;26.10;79.70;;;;;;4948365;28;19983;-76
2022/10/29 11:24:04;;;;;;;;;;;27.60;73.30;;;;;;4949306;28;19906;-76
2022/10/29 11:26:40;;;;;;;;;;;27.90;70.60;;;;;;4945159;28;19915;-76
2022/10/29 11:29:13;;;;;;;;;;;28.30;69.30;;;;;;4950285;28;19949;-76
2022/10/29 11:31:48;;;;;;;;;;;30.00;64.50;;;;;;4950505;28;19926;-77
2022/10/29 11:34:14;;;;;;;;;;;29.80;62.90;;;;;;4946797;28;19914;-75
2022/10/29 11:36:41;;;;;;;;;;;28.30;65.80;;;;;;4951590;29;19942;-76
2022/10/29 11:39:09;;;;;;;;;;;26.70;70.70;;;;;;4951743;28;19911;-76
2022/10/29 11:41:35;;;;;;;;;;;26.60;72.00;;;;;;4948421;28;19914;-76
2022/10/29 11:44:00;;;;;;;;;;;28.90;67.40;;;;;;4952620;28;19911;-77
2022/10/29 11:46:45;;;;;;;;;;;30.10;62.00;;;;;;4952943;29;20361;-77
2022/10/29 11:49:35;;;;;;;;;;;28.30;64.10;;;;;;4942612;29;20005;-76
2022/10/29 11:52:08;;;;;;;;;;;27.10;68.70;;;;;;4946079;29;20415;-76
2022/10/29 11:54:39;;;;;;;;;;;25.90;72.60;;;;;;4947548;28;19981;-77
2022/10/29 11:57:20;;;;;;;;;;;25.40;74.10;;;;;;4948750;29;19921;-76
2022/10/29 11:59:56;;;;;;;;;;;24.50;79.20;;;;;;4948054;29;19917;-77
2022/10/29 12:02:25;;;;;;;;;;;24.00;84.00;;;;;;4947681;28;20358;-77
2022/10/29 12:04:58;;;;;;;;;;;23.50;84.80;;;;;;4950432;29;19960;-77
2022/10/29 12:07:41;;;;;;;;;;;23.00;87.00;;;;;;4948823;28;19969;-75
2022/10/29 12:10:25;;;;;;;;;;;22.80;89.40;;;;;;4945987;29;20262;-76
2022/10/29 12:12:50;;;;;;;;;;;22.70;90.10;;;;;;4947344;28;19915;-76
2022/10/29 12:15:25;;;;;;;;;;;23.00;89.40;;;;;;4946749;29;19938;-76
2022/10/29 12:17:55;;;;;;;;;;;23.40;88.30;;;;;;4943635;29;20365;-74
2022/10/29 12:20:20;;;;;;;;;;;23.70;85.70;;;;;;4949786;28;19910;-74
2022/10/29 12:23:24;;;;;;;;;;;25.40;81.50;;;;;;4947165;29;20404;-74
2022/10/29 12:25:55;;;;;;;;;;;25.80;78.30;;;;;;4922884;29;19965;-76
2022/10/29 12:28:27;;;;;;;;;;;24.50;80.80;;;;;;4939798;28;20362;-74
2022/10/29 12:30:58;;;;;;;;;;;24.70;82.80;;;;;;4949115;28;20488;-75
2022/10/29 12:33:26;;;;;;;;;;;25.00;79.80;;;;;;4947750;28;19915;-75
2022/10/29 12:36:04;;;;;;;;;;;25.70;77.20;;;;;;4952310;28;19906;-74
2022/10/29 12:38:38;;;;;;;;;;;24.90;80.30;;;;;;4951940;28;20001;-74
2022/10/29 12:41:08;;;;;;;;;;;26.00;76.60;;;;;;4949280;29;20373;-75
2022/10/29 12:43:34;;;;;;;;;;;26.40;74.10;;;;;;4951499;28;19911;-75
2022/10/29 12:46:00;;;;;;;;;;;26.00;75.50;;;;;;4950856;28;19956;-74
2022/10/29 12:48:45;;;;;;;;;;;26.10;74.30;;;;;;4951486;29;19941;-75
2022/10/29 12:51:18;;;;;;;;;;;27.90;69.70;;;;;;4891570;29;19944;-74
2022/10/29 12:53:56;;;;;;;;;;;30.40;64.00;;;;;;4940982;29;19946;-75
2022/10/29 12:56:21;;;;;;;;;;;31.60;59.10;;;;;;4944544;28;19914;-75
2022/10/29 12:58:48;;;;;;;;;;;32.00;56.70;;;;;;4950164;28;19918;-75
2022/10/29 13:01:26;;;;;;;;;;;31.30;56.90;;;;;;4948945;28;20386;-74
2022/10/29 13:03:59;;;;;;;;;;;31.50;56.50;;;;;;4949267;28;19946;-74
2022/10/29 13:06:42;;;;;;;;;;;31.90;56.40;;;;;;4949838;28;19911;-74
2022/10/29 13:09:15;;;;;;;;;;;31.00;56.60;;;;;;4949246;29;19919;-74
2022/10/29 13:11:48;;;;;;;;;;;29.80;59.30;;;;;;4949837;28;19992;-74
2022/10/29 13:14:18;;;;;;;;;;;28.50;63.40;;;;;;4949627;28;19934;-74
2022/10/29 13:16:47;;;;;;;;;;;26.60;68.10;;;;;;4938693;28;19911;-74
2022/10/29 13:19:35;;;;;;;;;;;25.20;73.40;;;;;;4951337;28;19906;-75
2022/10/29 13:22:02;;;;;;;;;;;24.20;78.10;;;;;;4949194;28;19910;-75
2022/10/29 13:24:28;;;;;;;;;;;23.80;82.80;;;;;;4949777;28;19917;-75
2022/10/29 13:26:55;;;;;;;;;;;23.70;82.90;;;;;;4949414;28;20199;-75
2022/10/29 13:29:39;;;;;;;;;;;23.20;84.80;;;;;;4944361;28;19933;-73
2022/10/29 13:32:05;;;;;;;;;;;22.90;86.60;;;;;;4949697;29;19918;-74
2022/10/29 13:34:49;;;;;;;;;;;22.60;88.70;;;;;;4949852;28;19917;-74
2022/10/29 13:37:34;;;;;;;;;;;22.60;89.70;;;;;;4944969;28;19976;-75
2022/10/29 13:40:18;;;;;;;;;;;22.40;90.40;;;;;;4950956;29;19997;-75
2022/10/29 13:42:43;;;;;;;;;;;22.30;91.00;;;;;;4950901;28;19929;-75
2022/10/29 13:45:12;;;;;;;;;;;22.30;91.00;;;;;;4949758;28;20373;-75
2022/10/29 13:47:39;;;;;;;;;;;22.50;90.60;;;;;;4949192;28;19910;-75
2022/10/29 13:50:05;;;;;;;;;;;22.70;91.40;;;;;;4946549;29;19938;-74
2022/10/29 13:52:36;;;;;;;;;;;23.00;90.50;;;;;;4949729;28;19910;-74
2022/10/29 13:55:06;;;;;;;;;;;23.50;91.80;;;;;;4950929;28;20357;-74
2022/10/29 13:57:33;;;;;;;;;;;23.90;91.00;;;;;;4950438;28;20412;-73
2022/10/29 14:00:10;;;;;;;;;;;24.00;86.90;;;;;;4947354;28;20148;-74
2022/10/29 14:02:38;;;;;;;;;;;24.80;83.30;;;;;;4948957;29;20281;-74
2022/10/29 14:05:07;;;;;;;;;;;24.50;82.90;;;;;;4949155;28;19962;-74
2022/10/29 14:07:37;;;;;;;;;;;24.50;86.70;;;;;;4945244;28;19918;-74
2022/10/29 14:10:06;;;;;;;;;;;24.60;89.10;;;;;;4949162;28;20482;-74
2022/10/29 14:12:32;;;;;;;;;;;24.80;83.20;;;;;;4950332;29;19917;-73
2022/10/29 14:15:11;;;;;;;;;;;25.70;80.60;;;;;;4952937;28;19917;-73
2022/10/29 14:17:38;;;;;;;;;;;25.40;79.60;;;;;;4950976;28;19922;-75
2022/10/29 14:20:04;;;;;;;;;;;25.50;80.70;;;;;;4950168;28;19910;-74
2022/10/29 14:22:32;;;;;;;;;;;25.40;77.70;;;;;;4946619;28;20001;-74
2022/10/29 14:24:58;;;;;;;;;;;24.50;82.60;;;;;;4949797;28;19918;-74